sensor_id;sensor_type;location;lat;lon;timestamp;temperature;humidity
44487;DHT22;30191;50.908;6.962;2022-12-15T00:00:47;-0.50;99.90
44487;DHT22;30191;50.908;6.962;2022-12-15T00:03:31;-0.50;99.90
44487;DHT22;30191;50.908;6.962;2022-12-15T00:06:15;-0.50;99.90
44487;DHT22;30191;50.908;6.962;2022-12-15T00:08:59;-0.40;99.90
44487;DHT22;30191;50.908;6.962;2022-12-15T00:11:43;-0.40;99.90
44487;DHT22;30191;50.908;6.962;2022-12-15T00:14:27;-0.50;99.90
44487;DHT22;30191;50.908;6.962;2022-12-15T00:17:12;-0.50;99.90
44487;DHT22;30191;50.908;6.962;2022-12-15T00:19:56;-0.40;99.90
44487;DHT22;30191;50.908;6.962;2022-12-15T00:22:40;-0.40;99.90
44487;DHT22;30191;50.908;6.962;2022-12-15T00:25:24;-0.40;99.90
44487;DHT22;30191;50.908;6.962;2022-12-15T00:28:08;-0.40;99.90
44487;DHT22;30191;50.908;6.962;2022-12-15T00:30:52;-0.40;99.90
44487;DHT22;30191;50.908;6.962;2022-12-15T00:33:36;-0.30;99.90
44487;DHT22;30191;50.908;6.962;2022-12-15T00:36:20;-0.40;99.90
44487;DHT22;30191;50.908;6.962;2022-12-15T00:39:04;-0.50;99.90
44487;DHT22;30191;50.908;6.962;2022-12-15T00:41:30;-0.60;99.90
44487;DHT22;30191;50.908;6.962;2022-12-15T00:43:56;-0.60;99.90
44487;DHT22;30191;50.908;6.962;2022-12-15T00:46:21;-0.60;99.90
44487;DHT22;30191;50.908;6.962;2022-12-15T00:49:05;-0.50;99.90
44487;DHT22;30191;50.908;6.962;2022-12-15T00:51:51;-0.60;99.90
44487;DHT22;30191;50.908;6.962;2022-12-15T00:54:35;-0.60;99.90
44487;DHT22;30191;50.908;6.962;2022-12-15T00:57:19;-0.60;99.90
44487;DHT22;30191;50.908;6.962;2022-12-15T01:00:04;-0.60;99.90
44487;DHT22;30191;50.908;6.962;2022-12-15T01:02:48;-0.70;99.90
44487;DHT22;30191;50.908;6.962;2022-12-15T01:05:33;-0.70;99.90
44487;DHT22;30191;50.908;6.962;2022-12-15T01:08:17;-0.80;99.90
44487;DHT22;30191;50.908;6.962;2022-12-15T01:11:01;-0.60;99.90
44487;DHT22;30191;50.908;6.962;2022-12-15T01:13:45;-0.60;99.90
44487;DHT22;30191;50.908;6.962;2022-12-15T01:16:29;-0.70;99.90
44487;DHT22;30191;50.908;6.962;2022-12-15T01:19:13;-0.70;99.90
44487;DHT22;30191;50.908;6.962;2022-12-15T01:21:57;-0.60;99.90
44487;DHT22;30191;50.908;6.962;2022-12-15T01:24:23;-0.60;99.90
44487;DHT22;30191;50.908;6.962;2022-12-15T01:26:49;-0.60;99.90
44487;DHT22;30191;50.908;6.962;2022-12-15T01:29:14;-0.70;99.90
44487;DHT22;30191;50.908;6.962;2022-12-15T01:31:40;-0.80;99.90
44487;DHT22;30191;50.908;6.962;2022-12-15T01:34:07;-0.90;99.90
44487;DHT22;30191;50.908;6.962;2022-12-15T01:36:33;-0.90;99.90
44487;DHT22;30191;50.908;6.962;2022-12-15T01:39:00;-0.90;99.90
44487;DHT22;30191;50.908;6.962;2022-12-15T01:41:26;-0.80;99.90
44487;DHT22;30191;50.908;6.962;2022-12-15T01:43:52;-0.80;99.90
44487;DHT22;30191;50.908;6.962;2022-12-15T01:46:20;-0.80;99.90
44487;DHT22;30191;50.908;6.962;2022-12-15T01:48:50;-0.80;99.90
44487;DHT22;30191;50.908;6.962;2022-12-15T01:51:34;-0.70;99.90
44487;DHT22;30191;50.908;6.962;2022-12-15T01:54:23;-0.80;99.90
44487;DHT22;30191;50.908;6.962;2022-12-15T01:56:53;-0.70;99.90
44487;DHT22;30191;50.908;6.962;2022-12-15T01:59:27;-0.80;99.90
44487;DHT22;30191;50.908;6.962;2022-12-15T02:01:54;-1.00;99.90
44487;DHT22;30191;50.908;6.962;2022-12-15T02:04:21;-1.00;99.90
44487;DHT22;30191;50.908;6.962;2022-12-15T02:06:48;-1.00;99.90
44487;DHT22;30191;50.908;6.962;2022-12-15T02:09:14;-1.00;99.90
44487;DHT22;30191;50.908;6.962;2022-12-15T02:14:10;-1.10;99.90
44487;DHT22;30191;50.908;6.962;2022-12-15T02:28:04;-1.10;99.90
44487;DHT22;30191;50.908;6.962;2022-12-15T02:30:50;-1.20;99.90
44487;DHT22;30191;50.908;6.962;2022-12-15T02:33:57;-1.00;99.90
44487;DHT22;30191;50.908;6.962;2022-12-15T02:36:29;-1.10;99.90
44487;DHT22;30191;50.908;6.962;2022-12-15T02:38:57;-1.20;99.90
44487;DHT22;30191;50.908;6.962;2022-12-15T02:41:36;-1.10;99.90
44487;DHT22;30191;50.908;6.962;2022-12-15T02:44:25;-1.10;99.90
44487;DHT22;30191;50.908;6.962;2022-12-15T02:47:17;-1.20;99.90
44487;DHT22;30191;50.908;6.962;2022-12-15T02:55:54;-1.40;99.90
44487;DHT22;30191;50.908;6.962;2022-12-15T03:01:18;-1.40;99.90
44487;DHT22;30191;50.908;6.962;2022-12-15T03:03:46;-1.40;99.90
44487;DHT22;30191;50.908;6.962;2022-12-15T03:06:13;-1.30;99.90
44487;DHT22;30191;50.908;6.962;2022-12-15T03:08:39;-1.30;99.90
44487;DHT22;30191;50.908;6.962;2022-12-15T03:11:05;-1.40;99.90
44487;DHT22;30191;50.908;6.962;2022-12-15T03:13:30;-1.40;99.90
44487;DHT22;30191;50.908;6.962;2022-12-15T03:15:56;-1.40;99.90
44487;DHT22;30191;50.908;6.962;2022-12-15T03:18:22;-1.50;99.90
44487;DHT22;30191;50.908;6.962;2022-12-15T03:20:48;-1.50;99.90
44487;DHT22;30191;50.908;6.962;2022-12-15T03:23:14;-1.60;99.90
44487;DHT22;30191;50.908;6.962;2022-12-15T03:25:39;-1.60;99.90
44487;DHT22;30191;50.908;6.962;2022-12-15T03:28:05;-1.50;99.90
44487;DHT22;30191;50.908;6.962;2022-12-15T03:30:31;-1.60;99.90
44487;DHT22;30191;50.908;6.962;2022-12-15T03:32:56;-1.60;99.90
44487;DHT22;30191;50.908;6.962;2022-12-15T03:35:22;-1.60;99.90
44487;DHT22;30191;50.908;6.962;2022-12-15T03:37:48;-1.60;99.90
44487;DHT22;30191;50.908;6.962;2022-12-15T03:40:13;-1.50;99.90
44487;DHT22;30191;50.908;6.962;2022-12-15T03:42:39;-1.60;99.90
44487;DHT22;30191;50.908;6.962;2022-12-15T03:45:19;-1.70;99.90
44487;DHT22;30191;50.908;6.962;2022-12-15T03:47:46;-1.70;99.90
44487;DHT22;30191;50.908;6.962;2022-12-15T03:50:15;-1.70;99.90
44487;DHT22;30191;50.908;6.962;2022-12-15T03:52:41;-1.80;99.90
44487;DHT22;30191;50.908;6.962;2022-12-15T03:55:07;-1.80;99.90
44487;DHT22;30191;50.908;6.962;2022-12-15T03:57:34;-1.80;99.90
44487;DHT22;30191;50.908;6.962;2022-12-15T03:59:59;-1.90;99.90
44487;DHT22;30191;50.908;6.962;2022-12-15T04:02:25;-1.80;99.90
44487;DHT22;30191;50.908;6.962;2022-12-15T04:04:51;-1.90;99.90
44487;DHT22;30191;50.908;6.962;2022-12-15T04:07:17;-1.90;99.90
44487;DHT22;30191;50.908;6.962;2022-12-15T04:09:42;-2.00;99.90
44487;DHT22;30191;50.908;6.962;2022-12-15T04:12:10;-2.00;99.90
44487;DHT22;30191;50.908;6.962;2022-12-15T04:14:36;-2.10;99.90
44487;DHT22;30191;50.908;6.962;2022-12-15T04:17:10;-2.20;99.90
44487;DHT22;30191;50.908;6.962;2022-12-15T04:19:36;-2.10;99.90
44487;DHT22;30191;50.908;6.962;2022-12-15T04:22:21;-2.10;99.90
44487;DHT22;30191;50.908;6.962;2022-12-15T04:24:47;-2.00;99.90
44487;DHT22;30191;50.908;6.962;2022-12-15T04:27:31;-1.90;99.90
44487;DHT22;30191;50.908;6.962;2022-12-15T04:30:15;-1.90;99.90
44487;DHT22;30191;50.908;6.962;2022-12-15T04:33:00;-1.90;99.90
44487;DHT22;30191;50.908;6.962;2022-12-15T04:35:45;-2.00;99.90
44487;DHT22;30191;50.908;6.962;2022-12-15T04:38:30;-2.00;99.90
44487;DHT22;30191;50.908;6.962;2022-12-15T04:41:14;-2.00;99.90
44487;DHT22;30191;50.908;6.962;2022-12-15T04:43:59;-2.20;99.90
44487;DHT22;30191;50.908;6.962;2022-12-15T04:46:43;-2.20;99.90
44487;DHT22;30191;50.908;6.962;2022-12-15T04:49:27;-2.00;99.90
44487;DHT22;30191;50.908;6.962;2022-12-15T04:52:11;-1.90;99.90
44487;DHT22;30191;50.908;6.962;2022-12-15T04:54:55;-1.80;99.90
44487;DHT22;30191;50.908;6.962;2022-12-15T04:57:39;-1.90;99.90
44487;DHT22;30191;50.908;6.962;2022-12-15T05:00:24;-1.90;99.90
44487;DHT22;30191;50.908;6.962;2022-12-15T05:03:08;-1.90;99.90
44487;DHT22;30191;50.908;6.962;2022-12-15T05:05:52;-1.80;99.90
44487;DHT22;30191;50.908;6.962;2022-12-15T05:08:36;-1.90;99.90
44487;DHT22;30191;50.908;6.962;2022-12-15T05:11:21;-2.00;99.90
44487;DHT22;30191;50.908;6.962;2022-12-15T05:14:05;-2.00;99.90
44487;DHT22;30191;50.908;6.962;2022-12-15T05:16:49;-2.00;99.90
44487;DHT22;30191;50.908;6.962;2022-12-15T05:19:33;-2.10;99.90
44487;DHT22;30191;50.908;6.962;2022-12-15T05:22:17;-2.10;99.90
44487;DHT22;30191;50.908;6.962;2022-12-15T05:25:02;-2.10;99.90
44487;DHT22;30191;50.908;6.962;2022-12-15T05:27:46;-2.10;99.90
44487;DHT22;30191;50.908;6.962;2022-12-15T05:30:30;-2.00;99.90
44487;DHT22;30191;50.908;6.962;2022-12-15T05:33:15;-2.10;99.90
44487;DHT22;30191;50.908;6.962;2022-12-15T05:35:40;-2.10;99.90
44487;DHT22;30191;50.908;6.962;2022-12-15T05:38:06;-2.10;99.90
44487;DHT22;30191;50.908;6.962;2022-12-15T05:40:32;-2.10;99.90
44487;DHT22;30191;50.908;6.962;2022-12-15T05:42:58;-2.00;99.90
44487;DHT22;30191;50.908;6.962;2022-12-15T05:45:24;-2.00;99.90
44487;DHT22;30191;50.908;6.962;2022-12-15T05:47:51;-2.00;99.90
44487;DHT22;30191;50.908;6.962;2022-12-15T05:50:17;-2.20;99.90
44487;DHT22;30191;50.908;6.962;2022-12-15T05:52:43;-2.10;99.90
44487;DHT22;30191;50.908;6.962;2022-12-15T05:55:08;-2.10;99.90
44487;DHT22;30191;50.908;6.962;2022-12-15T05:57:34;-2.10;99.90
44487;DHT22;30191;50.908;6.962;2022-12-15T06:00:00;-2.10;99.90
44487;DHT22;30191;50.908;6.962;2022-12-15T06:02:28;-2.20;99.90
44487;DHT22;30191;50.908;6.962;2022-12-15T06:04:53;-2.20;99.90
44487;DHT22;30191;50.908;6.962;2022-12-15T06:07:19;-2.30;99.90
44487;DHT22;30191;50.908;6.962;2022-12-15T06:09:45;-2.20;99.90
44487;DHT22;30191;50.908;6.962;2022-12-15T06:12:11;-2.20;99.90
44487;DHT22;30191;50.908;6.962;2022-12-15T06:14:36;-2.20;99.90
44487;DHT22;30191;50.908;6.962;2022-12-15T06:17:02;-2.20;99.90
44487;DHT22;30191;50.908;6.962;2022-12-15T06:19:28;-2.20;99.90
44487;DHT22;30191;50.908;6.962;2022-12-15T06:21:54;-2.20;99.90
44487;DHT22;30191;50.908;6.962;2022-12-15T06:24:19;-2.20;99.90
44487;DHT22;30191;50.908;6.962;2022-12-15T06:26:46;-2.10;99.90
44487;DHT22;30191;50.908;6.962;2022-12-15T06:29:12;-2.20;99.90
44487;DHT22;30191;50.908;6.962;2022-12-15T06:31:39;-2.30;99.90
44487;DHT22;30191;50.908;6.962;2022-12-15T06:34:09;-2.30;99.90
44487;DHT22;30191;50.908;6.962;2022-12-15T06:36:36;-2.20;99.90
44487;DHT22;30191;50.908;6.962;2022-12-15T06:39:03;-2.20;99.90
44487;DHT22;30191;50.908;6.962;2022-12-15T06:41:30;-2.10;99.90
44487;DHT22;30191;50.908;6.962;2022-12-15T06:43:57;-2.20;99.90
44487;DHT22;30191;50.908;6.962;2022-12-15T06:46:24;-2.20;99.90
44487;DHT22;30191;50.908;6.962;2022-12-15T06:48:50;-2.20;99.90
44487;DHT22;30191;50.908;6.962;2022-12-15T06:51:16;-2.10;99.90
44487;DHT22;30191;50.908;6.962;2022-12-15T06:53:43;-2.10;99.90
44487;DHT22;30191;50.908;6.962;2022-12-15T06:58:49;-2.00;99.90
44487;DHT22;30191;50.908;6.962;2022-12-15T07:01:15;-2.10;99.90
44487;DHT22;30191;50.908;6.962;2022-12-15T07:03:41;-1.90;99.90
44487;DHT22;30191;50.908;6.962;2022-12-15T07:06:09;-1.90;99.90
44487;DHT22;30191;50.908;6.962;2022-12-15T07:08:35;-1.90;99.90
44487;DHT22;30191;50.908;6.962;2022-12-15T07:11:03;-1.90;99.90
44487;DHT22;30191;50.908;6.962;2022-12-15T07:13:29;-1.90;99.90
44487;DHT22;30191;50.908;6.962;2022-12-15T07:15:58;-1.80;99.90
44487;DHT22;30191;50.908;6.962;2022-12-15T07:18:24;-1.80;99.90
44487;DHT22;30191;50.908;6.962;2022-12-15T07:20:50;-1.70;99.90
44487;DHT22;30191;50.908;6.962;2022-12-15T07:23:16;-1.80;99.90
44487;DHT22;30191;50.908;6.962;2022-12-15T07:25:42;-1.90;99.90
44487;DHT22;30191;50.908;6.962;2022-12-15T07:28:08;-1.80;99.90
44487;DHT22;30191;50.908;6.962;2022-12-15T07:30:34;-1.80;99.90
44487;DHT22;30191;50.908;6.962;2022-12-15T07:33:00;-1.80;99.90
44487;DHT22;30191;50.908;6.962;2022-12-15T07:35:26;-1.70;99.90
44487;DHT22;30191;50.908;6.962;2022-12-15T07:37:52;-1.70;99.90
44487;DHT22;30191;50.908;6.962;2022-12-15T07:40:17;-1.70;99.90
44487;DHT22;30191;50.908;6.962;2022-12-15T07:42:43;-1.70;99.90
44487;DHT22;30191;50.908;6.962;2022-12-15T07:45:09;-1.60;99.90
44487;DHT22;30191;50.908;6.962;2022-12-15T07:47:35;-1.60;99.90
44487;DHT22;30191;50.908;6.962;2022-12-15T07:50:01;-1.60;99.90
44487;DHT22;30191;50.908;6.962;2022-12-15T07:52:27;-1.50;99.90
44487;DHT22;30191;50.908;6.962;2022-12-15T07:54:53;-1.60;99.90
44487;DHT22;30191;50.908;6.962;2022-12-15T07:57:19;-1.60;99.90
44487;DHT22;30191;50.908;6.962;2022-12-15T07:59:45;-1.50;99.90
44487;DHT22;30191;50.908;6.962;2022-12-15T08:02:12;-1.50;99.90
44487;DHT22;30191;50.908;6.962;2022-12-15T08:04:38;-1.50;99.90
44487;DHT22;30191;50.908;6.962;2022-12-15T08:07:05;-1.40;99.90
44487;DHT22;30191;50.908;6.962;2022-12-15T08:09:30;-1.40;99.90
44487;DHT22;30191;50.908;6.962;2022-12-15T08:11:56;-1.30;99.90
44487;DHT22;30191;50.908;6.962;2022-12-15T08:14:22;-1.30;99.90
44487;DHT22;30191;50.908;6.962;2022-12-15T08:16:48;-1.30;99.90
44487;DHT22;30191;50.908;6.962;2022-12-15T08:19:14;-1.20;99.90
44487;DHT22;30191;50.908;6.962;2022-12-15T08:21:42;-1.20;99.90
44487;DHT22;30191;50.908;6.962;2022-12-15T08:24:10;-1.20;99.90
44487;DHT22;30191;50.908;6.962;2022-12-15T08:26:36;-1.20;99.90
44487;DHT22;30191;50.908;6.962;2022-12-15T08:29:04;-1.20;99.90
44487;DHT22;30191;50.908;6.962;2022-12-15T08:31:31;-1.10;99.90
44487;DHT22;30191;50.908;6.962;2022-12-15T08:34:02;-1.10;99.90
44487;DHT22;30191;50.908;6.962;2022-12-15T08:36:28;-1.10;99.90
44487;DHT22;30191;50.908;6.962;2022-12-15T08:38:57;-1.10;99.90
44487;DHT22;30191;50.908;6.962;2022-12-15T08:41:26;-1.10;99.90
44487;DHT22;30191;50.908;6.962;2022-12-15T08:43:53;-1.10;99.90
44487;DHT22;30191;50.908;6.962;2022-12-15T08:46:23;-1.10;99.90
44487;DHT22;30191;50.908;6.962;2022-12-15T08:48:50;-1.00;99.90
44487;DHT22;30191;50.908;6.962;2022-12-15T08:51:17;-1.00;99.90
44487;DHT22;30191;50.908;6.962;2022-12-15T08:53:44;-0.90;99.90
44487;DHT22;30191;50.908;6.962;2022-12-15T08:56:12;-0.90;99.90
44487;DHT22;30191;50.908;6.962;2022-12-15T08:58:38;-0.90;99.90
44487;DHT22;30191;50.908;6.962;2022-12-15T09:01:07;-0.90;99.90
44487;DHT22;30191;50.908;6.962;2022-12-15T09:03:33;-0.80;99.90
44487;DHT22;30191;50.908;6.962;2022-12-15T09:06:04;-0.90;99.90
44487;DHT22;30191;50.908;6.962;2022-12-15T09:08:30;-0.90;99.90
44487;DHT22;30191;50.908;6.962;2022-12-15T09:10:57;-0.90;99.90
44487;DHT22;30191;50.908;6.962;2022-12-15T09:13:23;-0.80;99.90
44487;DHT22;30191;50.908;6.962;2022-12-15T09:16:03;-0.80;99.90
44487;DHT22;30191;50.908;6.962;2022-12-15T09:18:30;-0.80;99.90
44487;DHT22;30191;50.908;6.962;2022-12-15T09:21:00;-0.80;99.90
44487;DHT22;30191;50.908;6.962;2022-12-15T09:23:27;-0.80;99.90
44487;DHT22;30191;50.908;6.962;2022-12-15T09:26:08;-0.80;99.90
44487;DHT22;30191;50.908;6.962;2022-12-15T09:28:35;-0.80;99.90
44487;DHT22;30191;50.908;6.962;2022-12-15T09:31:07;-0.70;99.90
44487;DHT22;30191;50.908;6.962;2022-12-15T09:33:33;-0.70;99.90
44487;DHT22;30191;50.908;6.962;2022-12-15T09:35:59;-0.80;99.90
44487;DHT22;30191;50.908;6.962;2022-12-15T09:38:24;-0.70;99.90
44487;DHT22;30191;50.908;6.962;2022-12-15T09:40:50;-0.70;99.90
44487;DHT22;30191;50.908;6.962;2022-12-15T09:43:21;-0.60;99.90
44487;DHT22;30191;50.908;6.962;2022-12-15T09:48:54;-0.70;99.90
44487;DHT22;30191;50.908;6.962;2022-12-15T09:51:38;-0.60;99.90
44487;DHT22;30191;50.908;6.962;2022-12-15T09:54:08;-0.60;99.90
44487;DHT22;30191;50.908;6.962;2022-12-15T09:56:47;-0.60;99.90
44487;DHT22;30191;50.908;6.962;2022-12-15T09:59:36;-0.60;99.90
44487;DHT22;30191;50.908;6.962;2022-12-15T10:02:27;-0.50;99.90
44487;DHT22;30191;50.908;6.962;2022-12-15T10:05:13;-0.50;99.90
44487;DHT22;30191;50.908;6.962;2022-12-15T10:07:43;-0.50;99.90
44487;DHT22;30191;50.908;6.962;2022-12-15T10:10:37;-0.50;99.90
44487;DHT22;30191;50.908;6.962;2022-12-15T10:13:18;-0.60;99.90
44487;DHT22;30191;50.908;6.962;2022-12-15T10:15:49;-0.60;99.90
44487;DHT22;30191;50.908;6.962;2022-12-15T10:18:23;-0.60;99.90
44487;DHT22;30191;50.908;6.962;2022-12-15T10:20:54;-0.50;99.90
44487;DHT22;30191;50.908;6.962;2022-12-15T10:23:20;-0.50;99.90
44487;DHT22;30191;50.908;6.962;2022-12-15T10:25:58;-0.50;99.90
44487;DHT22;30191;50.908;6.962;2022-12-15T10:28:56;-0.50;99.90
44487;DHT22;30191;50.908;6.962;2022-12-15T10:31:59;-0.40;99.90
44487;DHT22;30191;50.908;6.962;2022-12-15T10:34:34;-0.40;99.90
44487;DHT22;30191;50.908;6.962;2022-12-15T10:37:00;-0.40;99.90
44487;DHT22;30191;50.908;6.962;2022-12-15T10:39:40;-0.40;99.90
44487;DHT22;30191;50.908;6.962;2022-12-15T10:42:14;-0.40;99.90
44487;DHT22;30191;50.908;6.962;2022-12-15T10:44:44;-0.40;99.90
44487;DHT22;30191;50.908;6.962;2022-12-15T10:49:41;-0.40;99.90
44487;DHT22;30191;50.908;6.962;2022-12-15T10:52:18;-0.40;99.90
44487;DHT22;30191;50.908;6.962;2022-12-15T10:54:47;-0.30;99.90
44487;DHT22;30191;50.908;6.962;2022-12-15T10:57:29;-0.20;99.90
44487;DHT22;30191;50.908;6.962;2022-12-15T11:00:26;-0.10;99.90
44487;DHT22;30191;50.908;6.962;2022-12-15T11:02:52;-0.10;99.90
44487;DHT22;30191;50.908;6.962;2022-12-15T11:05:19;-0.10;99.90
44487;DHT22;30191;50.908;6.962;2022-12-15T11:12:43;0.00;99.90
44487;DHT22;30191;50.908;6.962;2022-12-15T11:20:36;0.10;99.90
44487;DHT22;30191;50.908;6.962;2022-12-15T11:23:11;0.00;99.90
44487;DHT22;30191;50.908;6.962;2022-12-15T11:26:19;0.00;99.90
44487;DHT22;30191;50.908;6.962;2022-12-15T11:28:53;0.00;99.90
44487;DHT22;30191;50.908;6.962;2022-12-15T11:31:39;0.00;99.90
44487;DHT22;30191;50.908;6.962;2022-12-15T11:34:14;-0.10;99.90
44487;DHT22;30191;50.908;6.962;2022-12-15T11:50:58;0.30;99.90
44487;DHT22;30191;50.908;6.962;2022-12-15T11:56:34;0.50;99.90
44487;DHT22;30191;50.908;6.962;2022-12-15T12:07:39;0.80;99.90
44487;DHT22;30191;50.908;6.962;2022-12-15T12:19:03;0.80;99.90
44487;DHT22;30191;50.908;6.962;2022-12-15T12:21:50;0.80;99.90
44487;DHT22;30191;50.908;6.962;2022-12-15T12:24:25;0.90;99.90
44487;DHT22;30191;50.908;6.962;2022-12-15T12:29:53;1.20;99.90
44487;DHT22;30191;50.908;6.962;2022-12-15T12:35:08;1.20;99.90
44487;DHT22;30191;50.908;6.962;2022-12-15T12:38:03;1.10;99.90
44487;DHT22;30191;50.908;6.962;2022-12-15T12:42:58;1.30;99.90
44487;DHT22;30191;50.908;6.962;2022-12-15T12:48:50;1.30;99.90
44487;DHT22;30191;50.908;6.962;2022-12-15T12:51:36;1.40;99.90
44487;DHT22;30191;50.908;6.962;2022-12-15T12:54:42;1.50;99.90
44487;DHT22;30191;50.908;6.962;2022-12-15T12:59:39;1.60;99.90
44487;DHT22;30191;50.908;6.962;2022-12-15T13:05:01;1.70;99.90
44487;DHT22;30191;50.908;6.962;2022-12-15T13:15:09;1.90;99.90
44487;DHT22;30191;50.908;6.962;2022-12-15T13:17:43;2.00;99.90
44487;DHT22;30191;50.908;6.962;2022-12-15T13:20:28;2.10;99.90
44487;DHT22;30191;50.908;6.962;2022-12-15T13:22:55;2.20;99.90
44487;DHT22;30191;50.908;6.962;2022-12-15T13:25:42;2.20;99.90
44487;DHT22;30191;50.908;6.962;2022-12-15T13:46:50;2.20;99.90
44487;DHT22;30191;50.908;6.962;2022-12-15T13:49:36;2.30;99.90
44487;DHT22;30191;50.908;6.962;2022-12-15T13:55:22;2.20;99.90
44487;DHT22;30191;50.908;6.962;2022-12-15T13:58:02;2.20;99.90
44487;DHT22;30191;50.908;6.962;2022-12-15T14:00:30;2.10;99.90
44487;DHT22;30191;50.908;6.962;2022-12-15T14:03:09;2.10;99.90
44487;DHT22;30191;50.908;6.962;2022-12-15T14:05:36;2.10;99.90
44487;DHT22;30191;50.908;6.962;2022-12-15T14:08:12;2.20;99.90
44487;DHT22;30191;50.908;6.962;2022-12-15T14:10:51;2.30;99.90
44487;DHT22;30191;50.908;6.962;2022-12-15T14:13:24;2.30;99.90
44487;DHT22;30191;50.908;6.962;2022-12-15T14:16:03;2.20;99.90
44487;DHT22;30191;50.908;6.962;2022-12-15T14:18:30;2.10;99.90
44487;DHT22;30191;50.908;6.962;2022-12-15T14:20:57;2.00;99.90
44487;DHT22;30191;50.908;6.962;2022-12-15T14:23:37;2.00;99.90
44487;DHT22;30191;50.908;6.962;2022-12-15T14:26:05;1.90;99.90
44487;DHT22;30191;50.908;6.962;2022-12-15T14:28:33;1.90;99.90
44487;DHT22;30191;50.908;6.962;2022-12-15T14:31:09;1.80;99.90
44487;DHT22;30191;50.908;6.962;2022-12-15T14:33:37;1.80;99.90
44487;DHT22;30191;50.908;6.962;2022-12-15T14:36:07;1.90;99.90
44487;DHT22;30191;50.908;6.962;2022-12-15T14:38:57;1.80;99.90
44487;DHT22;30191;50.908;6.962;2022-12-15T14:41:33;1.90;99.90
44487;DHT22;30191;50.908;6.962;2022-12-15T14:44:14;1.90;99.90
44487;DHT22;30191;50.908;6.962;2022-12-15T14:46:45;1.90;99.90
44487;DHT22;30191;50.908;6.962;2022-12-15T14:49:24;1.80;99.90
44487;DHT22;30191;50.908;6.962;2022-12-15T14:51:57;1.70;99.90
44487;DHT22;30191;50.908;6.962;2022-12-15T14:54:27;1.70;99.90
44487;DHT22;30191;50.908;6.962;2022-12-15T14:59:31;1.60;99.90
44487;DHT22;30191;50.908;6.962;2022-12-15T15:02:15;1.50;99.90
44487;DHT22;30191;50.908;6.962;2022-12-15T15:04:41;1.40;99.90
44487;DHT22;30191;50.908;6.962;2022-12-15T15:07:15;1.30;99.90
44487;DHT22;30191;50.908;6.962;2022-12-15T15:09:43;1.20;99.90
44487;DHT22;30191;50.908;6.962;2022-12-15T15:12:16;1.20;99.90
44487;DHT22;30191;50.908;6.962;2022-12-15T15:14:58;1.20;99.90
44487;DHT22;30191;50.908;6.962;2022-12-15T15:20:00;1.10;99.90
44487;DHT22;30191;50.908;6.962;2022-12-15T15:23:00;1.00;99.90
44487;DHT22;30191;50.908;6.962;2022-12-15T15:28:01;0.80;99.90
44487;DHT22;30191;50.908;6.962;2022-12-15T15:30:28;0.70;99.90
44487;DHT22;30191;50.908;6.962;2022-12-15T15:32:58;0.70;99.90
44487;DHT22;30191;50.908;6.962;2022-12-15T15:35:32;0.60;99.90
44487;DHT22;30191;50.908;6.962;2022-12-15T15:38:06;0.60;99.90
44487;DHT22;30191;50.908;6.962;2022-12-15T15:40:35;0.60;99.90
44487;DHT22;30191;50.908;6.962;2022-12-15T15:43:06;0.60;99.90
44487;DHT22;30191;50.908;6.962;2022-12-15T15:45:32;0.60;99.90
44487;DHT22;30191;50.908;6.962;2022-12-15T15:47:57;0.50;99.90
44487;DHT22;30191;50.908;6.962;2022-12-15T15:50:27;0.50;99.90
44487;DHT22;30191;50.908;6.962;2022-12-15T15:52:53;0.40;99.90
44487;DHT22;30191;50.908;6.962;2022-12-15T15:55:26;0.30;99.90
44487;DHT22;30191;50.908;6.962;2022-12-15T15:57:53;0.30;99.90
44487;DHT22;30191;50.908;6.962;2022-12-15T16:00:22;0.20;99.90
44487;DHT22;30191;50.908;6.962;2022-12-15T16:02:49;0.20;99.90
44487;DHT22;30191;50.908;6.962;2022-12-15T16:05:15;0.10;99.90
44487;DHT22;30191;50.908;6.962;2022-12-15T16:07:41;0.10;99.90
44487;DHT22;30191;50.908;6.962;2022-12-15T16:10:18;0.10;99.90
44487;DHT22;30191;50.908;6.962;2022-12-15T16:12:52;0.10;99.90
44487;DHT22;30191;50.908;6.962;2022-12-15T16:15:24;0.00;99.90
44487;DHT22;30191;50.908;6.962;2022-12-15T16:17:51;0.00;99.90
44487;DHT22;30191;50.908;6.962;2022-12-15T16:20:19;0.00;99.90
44487;DHT22;30191;50.908;6.962;2022-12-15T16:23:09;0.10;99.90
44487;DHT22;30191;50.908;6.962;2022-12-15T16:25:46;-0.10;99.90
44487;DHT22;30191;50.908;6.962;2022-12-15T16:28:21;-0.10;99.90
44487;DHT22;30191;50.908;6.962;2022-12-15T16:30:48;-0.20;99.90
44487;DHT22;30191;50.908;6.962;2022-12-15T16:33:14;-0.20;99.90
44487;DHT22;30191;50.908;6.962;2022-12-15T16:35:41;-0.20;99.90
44487;DHT22;30191;50.908;6.962;2022-12-15T16:38:30;-0.20;99.90
44487;DHT22;30191;50.908;6.962;2022-12-15T16:40:57;-0.20;99.90
44487;DHT22;30191;50.908;6.962;2022-12-15T16:43:28;-0.30;99.90
44487;DHT22;30191;50.908;6.962;2022-12-15T16:45:54;-0.30;99.90
44487;DHT22;30191;50.908;6.962;2022-12-15T16:48:20;-0.40;99.90
44487;DHT22;30191;50.908;6.962;2022-12-15T16:50:51;-0.40;99.90
44487;DHT22;30191;50.908;6.962;2022-12-15T16:53:20;-0.50;99.90
44487;DHT22;30191;50.908;6.962;2022-12-15T16:56:07;-0.40;99.90
44487;DHT22;30191;50.908;6.962;2022-12-15T16:58:36;-0.30;99.90
44487;DHT22;30191;50.908;6.962;2022-12-15T17:01:02;-0.40;99.90
44487;DHT22;30191;50.908;6.962;2022-12-15T17:03:28;-0.40;99.90
44487;DHT22;30191;50.908;6.962;2022-12-15T17:06:03;-0.40;99.90
44487;DHT22;30191;50.908;6.962;2022-12-15T17:08:33;-0.50;99.90
44487;DHT22;30191;50.908;6.962;2022-12-15T17:11:01;-0.40;99.90
44487;DHT22;30191;50.908;6.962;2022-12-15T17:13:34;-0.40;99.90
44487;DHT22;30191;50.908;6.962;2022-12-15T17:16:00;-0.50;99.90
44487;DHT22;30191;50.908;6.962;2022-12-15T17:18:26;-0.50;99.90
44487;DHT22;30191;50.908;6.962;2022-12-15T17:21:00;-0.50;99.90
44487;DHT22;30191;50.908;6.962;2022-12-15T17:23:28;-0.60;99.90
44487;DHT22;30191;50.908;6.962;2022-12-15T17:25:54;-0.60;99.90
44487;DHT22;30191;50.908;6.962;2022-12-15T17:28:23;-0.60;99.90
44487;DHT22;30191;50.908;6.962;2022-12-15T17:30:49;-0.60;99.90
44487;DHT22;30191;50.908;6.962;2022-12-15T17:33:26;-0.70;99.90
44487;DHT22;30191;50.908;6.962;2022-12-15T17:36:00;-0.70;99.90
44487;DHT22;30191;50.908;6.962;2022-12-15T17:38:27;-0.60;99.90
44487;DHT22;30191;50.908;6.962;2022-12-15T17:40:53;-0.50;99.90
44487;DHT22;30191;50.908;6.962;2022-12-15T17:43:22;-0.40;99.90
44487;DHT22;30191;50.908;6.962;2022-12-15T17:45:48;-0.40;99.90
44487;DHT22;30191;50.908;6.962;2022-12-15T17:48:20;-0.40;99.90
44487;DHT22;30191;50.908;6.962;2022-12-15T17:50:46;-0.20;99.90
44487;DHT22;30191;50.908;6.962;2022-12-15T17:53:15;-0.20;99.90
44487;DHT22;30191;50.908;6.962;2022-12-15T17:55:42;-0.20;99.90
44487;DHT22;30191;50.908;6.962;2022-12-15T17:58:28;-0.30;99.90
44487;DHT22;30191;50.908;6.962;2022-12-15T18:00:55;-0.40;99.90
44487;DHT22;30191;50.908;6.962;2022-12-15T18:03:22;-0.30;99.90
44487;DHT22;30191;50.908;6.962;2022-12-15T18:05:51;-0.30;99.90
44487;DHT22;30191;50.908;6.962;2022-12-15T18:08:21;-0.20;99.90
44487;DHT22;30191;50.908;6.962;2022-12-15T18:10:50;-0.30;99.90
44487;DHT22;30191;50.908;6.962;2022-12-15T18:15:44;-0.20;99.90
44487;DHT22;30191;50.908;6.962;2022-12-15T18:18:10;-0.20;99.90
44487;DHT22;30191;50.908;6.962;2022-12-15T18:20:35;-0.20;99.90